EZY2748 EGKK-LGKO
Flight info
| Callsign | EZY2748 |
|---|---|
| Flight time | 1h 28m |
| Altitude | 37000 |
| Route | ODVIK Y311 DVR UL9 KONAN DCT KOK DCT CIV DCT SUTAL DCT GTQ DCT BEGAR DCT TRA DCT SUXAN DCT ROKIB DCT ROTAR DCT SPL/N0444F390 DCT MAVAR DCT TALAS UN130 MES UN139 LURUS L995 KOPAR |
| Aircraft | A20N/M-SDE2E3FGHIRWXY/LB1 |
Departure
| Time | 2026-05-05 11:03 |
|---|---|
| Airport | London Gatwick Airport (EGKK) |
Arrival
| Time | 2026-05-05 12:32 |
|---|---|
| Airport | Kos International Airport "Ippokratis" (LGKO) |
| Time | Latitude | Longitude | Altitude | Speed | Heading |
|---|---|---|---|---|---|
| 2026-05-05 10:36 | 51.15661 | -0.17699 | 208 ft | 0 kts | 167° |
| 2026-05-05 10:49 | 51.15662 | -0.17700 | 208 ft | 2 kts | 167° |
| 2026-05-05 10:49 | 51.15680 | -0.17706 | 215 ft | 3 kts | 167° |
| 2026-05-05 10:49 | 51.15698 | -0.17712 | 211 ft | 3 kts | 167° |
| 2026-05-05 10:50 | 51.15716 | -0.17719 | 212 ft | 3 kts | 179° |
| 2026-05-05 10:50 | 51.15734 | -0.17711 | 211 ft | 3 kts | 219° |
| 2026-05-05 10:50 | 51.15744 | -0.17690 | 216 ft | 1 kts | 252° |
| 2026-05-05 10:52 | 51.15743 | -0.17695 | 208 ft | 4 kts | 252° |
| 2026-05-05 10:53 | 51.15721 | -0.17808 | 208 ft | 15 kts | 258° |
| 2026-05-05 10:53 | 51.15700 | -0.17968 | 211 ft | 14 kts | 258° |
| 2026-05-05 10:53 | 51.15679 | -0.18118 | 210 ft | 13 kts | 258° |
| 2026-05-05 10:53 | 51.15660 | -0.18257 | 216 ft | 13 kts | 258° |
| 2026-05-05 10:54 | 51.15616 | -0.18352 | 211 ft | 10 kts | 192° |
| 2026-05-05 10:54 | 51.15547 | -0.18334 | 208 ft | 11 kts | 167° |
| 2026-05-05 10:54 | 51.15455 | -0.18301 | 211 ft | 15 kts | 167° |
| 2026-05-05 10:54 | 51.15357 | -0.18265 | 212 ft | 14 kts | 167° |
| 2026-05-05 10:55 | 51.15264 | -0.18233 | 214 ft | 13 kts | 168° |
| 2026-05-05 10:55 | 51.15193 | -0.18275 | 214 ft | 11 kts | 252° |
| 2026-05-05 10:55 | 51.15174 | -0.18420 | 211 ft | 16 kts | 258° |
| 2026-05-05 10:55 | 51.15152 | -0.18590 | 210 ft | 15 kts | 258° |
| 2026-05-05 10:56 | 51.15131 | -0.18751 | 208 ft | 15 kts | 258° |
| 2026-05-05 10:56 | 51.15109 | -0.18902 | 211 ft | 13 kts | 257° |
| 2026-05-05 10:56 | 51.15086 | -0.19066 | 218 ft | 18 kts | 257° |
| 2026-05-05 10:56 | 51.15057 | -0.19280 | 216 ft | 20 kts | 258° |
| 2026-05-05 10:57 | 51.15028 | -0.19490 | 216 ft | 19 kts | 257° |
| 2026-05-05 10:57 | 51.15000 | -0.19691 | 217 ft | 18 kts | 257° |
| 2026-05-05 10:57 | 51.14973 | -0.19881 | 216 ft | 17 kts | 257° |
| 2026-05-05 10:57 | 51.14947 | -0.20064 | 210 ft | 17 kts | 258° |
| 2026-05-05 10:58 | 51.14924 | -0.20240 | 211 ft | 16 kts | 258° |
| 2026-05-05 10:58 | 51.14902 | -0.20406 | 210 ft | 15 kts | 258° |
| 2026-05-05 10:58 | 51.14882 | -0.20563 | 211 ft | 14 kts | 257° |
| 2026-05-05 10:58 | 51.14862 | -0.20706 | 208 ft | 13 kts | 257° |
| 2026-05-05 10:59 | 51.14843 | -0.20840 | 208 ft | 12 kts | 257° |
| 2026-05-05 10:59 | 51.14826 | -0.20963 | 214 ft | 11 kts | 257° |
| 2026-05-05 10:59 | 51.14810 | -0.21075 | 215 ft | 10 kts | 255° |
| 2026-05-05 10:59 | 51.14782 | -0.21227 | 210 ft | 19 kts | 255° |
| 2026-05-05 11:00 | 51.14746 | -0.21391 | 218 ft | 9 kts | 222° |
| 2026-05-05 11:00 | 51.14735 | -0.21401 | 211 ft | 0 kts | 200° |
| 2026-05-05 11:00 | 51.14734 | -0.21401 | 211 ft | 1 kts | 198° |
| 2026-05-05 11:01 | 51.14684 | -0.21385 | 216 ft | 13 kts | 152° |
| 2026-05-05 11:01 | 51.14623 | -0.21334 | 218 ft | 9 kts | 156° |
| 2026-05-05 11:01 | 51.14571 | -0.21296 | 210 ft | 7 kts | 155° |
| 2026-05-05 11:01 | 51.14532 | -0.21250 | 214 ft | 7 kts | 131° |
| 2026-05-05 11:02 | 51.14519 | -0.21186 | 211 ft | 5 kts | 86° |
| 2026-05-05 11:02 | 51.14525 | -0.21139 | 209 ft | 3 kts | 76° |
| 2026-05-05 11:02 | 51.14529 | -0.21113 | 213 ft | 2 kts | 75° |
| 2026-05-05 11:02 | 51.14529 | -0.21111 | 215 ft | 0 kts | 75° |
| 2026-05-05 11:03 | 51.14537 | -0.21064 | 212 ft | 22 kts | 77° |
| 2026-05-05 11:03 | 51.14622 | -0.20442 | 217 ft | 94 kts | 78° |
| 2026-05-05 11:03 | 51.14815 | -0.19030 | 244 ft | 160 kts | 78° |
| 2026-05-05 11:03 | 51.14995 | -0.17266 | 955 ft | 165 kts | 78° |
| 2026-05-05 11:04 | 51.15197 | -0.15422 | 1761 ft | 172 kts | 77° |
| 2026-05-05 11:04 | 51.15413 | -0.13536 | 2633 ft | 174 kts | 76° |
| 2026-05-05 11:04 | 51.15670 | -0.11612 | 3293 ft | 183 kts | 75° |
| 2026-05-05 11:04 | 51.15977 | -0.09587 | 3851 ft | 192 kts | 74° |
| 2026-05-05 11:05 | 51.16309 | -0.07438 | 4365 ft | 208 kts | 76° |
| 2026-05-05 11:05 | 51.16653 | -0.05072 | 4800 ft | 229 kts | 76° |
| 2026-05-05 11:05 | 51.16978 | -0.02761 | 5287 ft | 243 kts | 77° |
| 2026-05-05 11:05 | 51.17134 | -0.01477 | 5557 ft | 250 kts | 82° |
| 2026-05-05 11:06 | 51.17105 | 0.01357 | 6175 ft | 261 kts | 94° |
| 2026-05-05 11:06 | 51.16917 | 0.04274 | 6774 ft | 268 kts | 95° |
| 2026-05-05 11:06 | 51.16772 | 0.07229 | 7339 ft | 272 kts | 91° |
| 2026-05-05 11:06 | 51.16705 | 0.10287 | 7927 ft | 272 kts | 91° |
| 2026-05-05 11:07 | 51.16667 | 0.13140 | 8426 ft | 252 kts | 90° |
| 2026-05-05 11:07 | 51.16653 | 0.15941 | 9056 ft | 248 kts | 89° |
| 2026-05-05 11:07 | 51.16627 | 0.18667 | 9638 ft | 250 kts | 91° |
| 2026-05-05 11:07 | 51.16564 | 0.21446 | 10223 ft | 252 kts | 92° |
| 2026-05-05 11:08 | 51.16479 | 0.24286 | 10818 ft | 260 kts | 90° |
| 2026-05-05 11:08 | 51.16506 | 0.27200 | 11440 ft | 267 kts | 88° |
| 2026-05-05 11:08 | 51.16583 | 0.30185 | 12086 ft | 273 kts | 86° |
| 2026-05-05 11:08 | 51.16709 | 0.33240 | 12785 ft | 279 kts | 86° |
| 2026-05-05 11:09 | 51.16744 | 0.36389 | 13359 ft | 290 kts | 92° |
| 2026-05-05 11:09 | 51.16661 | 0.39638 | 14003 ft | 296 kts | 91° |
| 2026-05-05 11:09 | 51.16622 | 0.42942 | 14599 ft | 300 kts | 90° |
| 2026-05-05 11:09 | 51.16604 | 0.46283 | 15187 ft | 303 kts | 90° |
| 2026-05-05 11:10 | 51.16571 | 0.49624 | 15799 ft | 307 kts | 91° |
| 2026-05-05 11:10 | 51.16498 | 0.53053 | 16438 ft | 312 kts | 92° |
| 2026-05-05 11:10 | 51.16406 | 0.56529 | 17086 ft | 315 kts | 92° |
| 2026-05-05 11:10 | 51.16308 | 0.60033 | 17736 ft | 319 kts | 92° |
| 2026-05-05 11:11 | 51.16209 | 0.63580 | 18388 ft | 321 kts | 92° |
| 2026-05-05 11:11 | 51.16111 | 0.67179 | 18792 ft | 331 kts | 93° |
| 2026-05-05 11:11 | 51.16011 | 0.70926 | 19019 ft | 346 kts | 93° |
| 2026-05-05 11:11 | 51.15909 | 0.74836 | 19237 ft | 360 kts | 93° |
| 2026-05-05 11:12 | 51.15803 | 0.78897 | 19455 ft | 373 kts | 93° |
| 2026-05-05 11:12 | 51.15693 | 0.83102 | 19597 ft | 386 kts | 93° |
| 2026-05-05 11:12 | 51.15666 | 0.84102 | 19655 ft | 389 kts | 93° |
| 2026-05-05 11:12 | 51.15585 | 0.87173 | 19806 ft | 398 kts | 93° |
| 2026-05-05 11:13 | 51.15488 | 0.90782 | 19981 ft | 408 kts | 93° |
| 2026-05-05 11:13 | 51.15364 | 0.95345 | 20324 ft | 415 kts | 93° |
| 2026-05-05 11:13 | 51.15237 | 0.99978 | 20796 ft | 419 kts | 94° |
| 2026-05-05 11:13 | 51.15108 | 1.04637 | 21286 ft | 422 kts | 94° |
| 2026-05-05 11:14 | 51.14976 | 1.09333 | 21777 ft | 425 kts | 94° |
| 2026-05-05 11:14 | 51.14841 | 1.14051 | 22271 ft | 428 kts | 94° |
| 2026-05-05 11:14 | 51.14702 | 1.18805 | 22764 ft | 431 kts | 94° |
| 2026-05-05 11:14 | 51.14559 | 1.23590 | 23240 ft | 434 kts | 94° |
| 2026-05-05 11:15 | 51.14415 | 1.28335 | 23669 ft | 437 kts | 95° |
| 2026-05-05 11:15 | 51.14267 | 1.33199 | 24039 ft | 440 kts | 95° |
| 2026-05-05 11:15 | 51.14116 | 1.38095 | 24399 ft | 443 kts | 95° |
| 2026-05-05 11:15 | 51.13963 | 1.42998 | 24772 ft | 445 kts | 95° |
| 2026-05-05 11:16 | 51.13860 | 1.46290 | 25006 ft | 447 kts | 95° |
| 2026-05-05 11:16 | 51.13701 | 1.51239 | 25353 ft | 450 kts | 95° |
| 2026-05-05 11:16 | 51.13539 | 1.56224 | 25700 ft | 452 kts | 95° |
| 2026-05-05 11:16 | 51.13374 | 1.61243 | 26035 ft | 454 kts | 95° |
| 2026-05-05 11:17 | 51.13206 | 1.66296 | 26349 ft | 457 kts | 95° |
| 2026-05-05 11:17 | 51.13036 | 1.71361 | 26668 ft | 460 kts | 95° |
| 2026-05-05 11:17 | 51.12863 | 1.76454 | 26981 ft | 462 kts | 95° |
| 2026-05-05 11:17 | 51.12654 | 1.81563 | 27299 ft | 463 kts | 98° |
| 2026-05-05 11:18 | 51.12094 | 1.86601 | 27718 ft | 460 kts | 107° |
| 2026-05-05 11:18 | 51.11033 | 1.91389 | 28146 ft | 456 kts | 117° |
| 2026-05-05 11:18 | 51.09516 | 1.95792 | 28569 ft | 453 kts | 124° |
| 2026-05-05 11:18 | 51.00717 | 2.14996 | 30311 ft | 450 kts | 130° |
| 2026-05-05 11:19 | 50.91277 | 2.34790 | 31828 ft | 448 kts | 129° |
| 2026-05-05 11:19 | 50.83857 | 2.50590 | 32972 ft | 446 kts | 129° |
| 2026-05-05 11:19 | 50.76415 | 2.66257 | 34002 ft | 444 kts | 130° |
| 2026-05-05 11:19 | 50.69022 | 2.81737 | 34837 ft | 442 kts | 130° |
| 2026-05-05 11:20 | 50.61583 | 2.97218 | 35559 ft | 441 kts | 130° |
| 2026-05-05 11:20 | 50.54131 | 3.12637 | 36191 ft | 441 kts | 130° |
| 2026-05-05 11:20 | 50.46692 | 3.27937 | 36737 ft | 441 kts | 130° |
| 2026-05-05 11:20 | 50.39251 | 3.43148 | 36909 ft | 450 kts | 130° |
| 2026-05-05 11:21 | 50.31531 | 3.58839 | 36901 ft | 461 kts | 130° |
| 2026-05-05 11:21 | 50.15960 | 3.90221 | 36883 ft | 452 kts | 131° |
| 2026-05-05 11:22 | 50.00446 | 4.21108 | 36876 ft | 451 kts | 131° |
| 2026-05-05 11:22 | 49.84894 | 4.51713 | 36860 ft | 450 kts | 131° |
| 2026-05-05 11:23 | 49.69354 | 4.81943 | 36850 ft | 447 kts | 131° |
| 2026-05-05 11:23 | 49.53788 | 5.11877 | 36851 ft | 446 kts | 131° |
| 2026-05-05 11:24 | 49.38284 | 5.41359 | 36852 ft | 447 kts | 132° |
| 2026-05-05 11:24 | 49.22596 | 5.70863 | 36854 ft | 446 kts | 132° |
| 2026-05-05 11:25 | 49.06808 | 6.00222 | 36873 ft | 447 kts | 133° |
| 2026-05-05 11:25 | 48.90998 | 6.29302 | 36882 ft | 445 kts | 133° |
| 2026-05-05 11:26 | 48.75154 | 6.58129 | 36867 ft | 445 kts | 133° |
| 2026-05-05 11:26 | 48.59193 | 6.86857 | 36875 ft | 445 kts | 133° |
| 2026-05-05 11:27 | 48.43197 | 7.15333 | 36860 ft | 446 kts | 134° |
| 2026-05-05 11:27 | 48.27205 | 7.43510 | 36880 ft | 446 kts | 134° |
| 2026-05-05 11:28 | 48.10953 | 7.71838 | 36879 ft | 448 kts | 134° |
| 2026-05-05 11:28 | 47.94620 | 8.00006 | 36880 ft | 449 kts | 134° |
| 2026-05-05 11:29 | 47.78245 | 8.27956 | 36878 ft | 451 kts | 135° |
| 2026-05-05 11:29 | 47.62054 | 8.56542 | 36879 ft | 453 kts | 131° |
| 2026-05-05 11:30 | 47.46360 | 8.85855 | 36886 ft | 455 kts | 132° |
| 2026-05-05 11:30 | 47.30486 | 9.15099 | 36873 ft | 457 kts | 133° |
| 2026-05-05 11:31 | 47.21964 | 9.34167 | 36874 ft | 463 kts | 124° |
| 2026-05-05 11:31 | 47.18716 | 9.42363 | 36864 ft | 463 kts | 124° |
| 2026-05-05 11:32 | 47.15446 | 9.50496 | 36872 ft | 464 kts | 124° |
| 2026-05-05 11:32 | 47.12153 | 9.58655 | 36871 ft | 464 kts | 124° |
| 2026-05-05 11:33 | 47.08851 | 9.66820 | 36875 ft | 465 kts | 124° |
| 2026-05-05 11:33 | 47.05561 | 9.74937 | 36886 ft | 466 kts | 124° |
| 2026-05-05 11:34 | 47.02256 | 9.83077 | 36883 ft | 466 kts | 125° |
| 2026-05-05 11:34 | 46.98916 | 9.91271 | 36897 ft | 466 kts | 125° |
| 2026-05-05 11:35 | 46.95587 | 9.99412 | 36905 ft | 466 kts | 124° |
| 2026-05-05 11:35 | 46.92249 | 10.07556 | 36919 ft | 466 kts | 125° |
| 2026-05-05 11:36 | 46.88930 | 10.15636 | 36920 ft | 466 kts | 125° |
| 2026-05-05 11:36 | 46.85576 | 10.23774 | 36937 ft | 468 kts | 125° |
| 2026-05-05 11:37 | 46.82201 | 10.31928 | 36936 ft | 468 kts | 125° |
| 2026-05-05 11:37 | 46.78831 | 10.40044 | 36933 ft | 468 kts | 125° |
| 2026-05-05 11:38 | 46.75455 | 10.48158 | 36946 ft | 468 kts | 125° |
| 2026-05-05 11:38 | 46.72086 | 10.56230 | 36960 ft | 469 kts | 125° |
| 2026-05-05 11:39 | 46.68685 | 10.64355 | 36966 ft | 469 kts | 125° |
| 2026-05-05 11:39 | 46.65281 | 10.72464 | 36977 ft | 469 kts | 125° |
| 2026-05-05 11:40 | 46.53166 | 11.01093 | 37011 ft | 471 kts | 126° |
| 2026-05-05 11:40 | 46.39294 | 11.33596 | 37005 ft | 473 kts | 125° |
| 2026-05-05 11:41 | 46.25304 | 11.65953 | 36996 ft | 475 kts | 125° |
| 2026-05-05 11:41 | 46.11257 | 11.98071 | 37016 ft | 476 kts | 125° |
| 2026-05-05 11:42 | 45.97032 | 12.30223 | 37035 ft | 476 kts | 126° |
| 2026-05-05 11:42 | 45.82697 | 12.62255 | 37040 ft | 477 kts | 126° |
| 2026-05-05 11:43 | 45.68309 | 12.94042 | 37031 ft | 475 kts | 126° |
| 2026-05-05 11:43 | 45.53802 | 13.25736 | 37035 ft | 475 kts | 126° |
| 2026-05-05 11:44 | 45.39315 | 13.57031 | 37048 ft | 476 kts | 126° |
| 2026-05-05 11:44 | 45.24588 | 13.88502 | 37037 ft | 476 kts | 126° |
| 2026-05-05 11:45 | 45.09833 | 14.19678 | 37043 ft | 479 kts | 127° |
| 2026-05-05 11:45 | 44.94957 | 14.50778 | 37052 ft | 476 kts | 127° |
| 2026-05-05 11:46 | 44.80023 | 14.81662 | 37057 ft | 477 kts | 127° |
| 2026-05-05 11:46 | 44.64988 | 15.12419 | 37054 ft | 477 kts | 127° |
| 2026-05-05 11:47 | 44.49846 | 15.43069 | 37070 ft | 478 kts | 127° |
| 2026-05-05 11:47 | 44.34607 | 15.73590 | 37062 ft | 478 kts | 127° |
| 2026-05-05 11:48 | 44.11659 | 16.18954 | 37062 ft | 480 kts | 128° |
| 2026-05-05 11:48 | 43.96156 | 16.49204 | 37067 ft | 482 kts | 128° |
| 2026-05-05 11:49 | 43.80503 | 16.79433 | 37074 ft | 483 kts | 128° |
| 2026-05-05 11:49 | 43.64727 | 17.09586 | 37083 ft | 485 kts | 128° |
| 2026-05-05 11:50 | 43.48781 | 17.39753 | 37088 ft | 487 kts | 128° |
| 2026-05-05 11:50 | 43.32682 | 17.69899 | 37077 ft | 489 kts | 129° |
| 2026-05-05 11:51 | 43.16557 | 17.99787 | 37077 ft | 491 kts | 129° |
| 2026-05-05 11:51 | 43.00143 | 18.29902 | 37100 ft | 495 kts | 129° |
| 2026-05-05 11:52 | 42.83549 | 18.60044 | 37101 ft | 498 kts | 129° |
| 2026-05-05 11:52 | 42.66774 | 18.90205 | 37110 ft | 500 kts | 129° |
| 2026-05-05 11:53 | 42.49833 | 19.20355 | 37128 ft | 504 kts | 130° |
| 2026-05-05 11:53 | 42.32727 | 19.50498 | 37128 ft | 506 kts | 130° |
| 2026-05-05 11:54 | 42.15434 | 19.80663 | 37118 ft | 509 kts | 130° |
| 2026-05-05 11:54 | 41.98123 | 20.10559 | 37114 ft | 511 kts | 129° |
| 2026-05-05 11:55 | 41.80543 | 20.40619 | 37115 ft | 512 kts | 129° |
| 2026-05-05 11:55 | 41.62827 | 20.70612 | 37112 ft | 513 kts | 129° |
| 2026-05-05 11:56 | 41.45041 | 21.00429 | 37112 ft | 513 kts | 129° |
| 2026-05-05 11:56 | 41.27171 | 21.30094 | 37105 ft | 511 kts | 129° |
| 2026-05-05 11:57 | 41.09257 | 21.59545 | 37110 ft | 512 kts | 128° |
| 2026-05-05 11:57 | 40.91458 | 21.88529 | 37104 ft | 510 kts | 128° |
| 2026-05-05 11:58 | 40.73443 | 22.17586 | 37076 ft | 509 kts | 128° |
| 2026-05-05 11:58 | 40.55405 | 22.46409 | 37054 ft | 510 kts | 128° |
| 2026-05-05 11:59 | 40.37305 | 22.75061 | 37054 ft | 510 kts | 128° |
| 2026-05-05 11:59 | 40.19234 | 23.03406 | 37052 ft | 510 kts | 128° |
| 2026-05-05 12:00 | 40.00950 | 23.31820 | 37057 ft | 510 kts | 128° |
| 2026-05-05 12:00 | 39.82659 | 23.59990 | 37068 ft | 509 kts | 129° |
| 2026-05-05 12:01 | 39.64259 | 23.88072 | 37073 ft | 509 kts | 129° |
| 2026-05-05 12:01 | 39.45952 | 24.15762 | 37077 ft | 509 kts | 129° |
| 2026-05-05 12:02 | 39.27523 | 24.43392 | 37075 ft | 508 kts | 129° |
| 2026-05-05 12:02 | 39.15559 | 24.61199 | 37080 ft | 507 kts | 130° |
| 2026-05-05 12:03 | 39.14762 | 24.62382 | 37075 ft | 507 kts | 130° |
| 2026-05-05 12:03 | 38.96339 | 24.89598 | 37083 ft | 507 kts | 130° |
| 2026-05-05 12:04 | 38.77757 | 25.16813 | 37085 ft | 507 kts | 130° |
| 2026-05-05 12:04 | 38.62259 | 25.39332 | 37076 ft | 506 kts | 130° |
| 2026-05-05 12:05 | 38.43606 | 25.66226 | 37097 ft | 505 kts | 131° |
| 2026-05-05 12:05 | 38.32648 | 25.81398 | 37162 ft | 504 kts | 135° |
| 2026-05-05 12:06 | 38.27615 | 25.87624 | 36664 ft | 504 kts | 135° |
| 2026-05-05 12:06 | 38.25029 | 25.90648 | 36026 ft | 506 kts | 144° |
| 2026-05-05 12:06 | 38.22004 | 25.92881 | 35414 ft | 504 kts | 158° |
| 2026-05-05 12:07 | 38.18721 | 25.94484 | 34813 ft | 503 kts | 163° |
| 2026-05-05 12:07 | 38.15412 | 25.95787 | 34230 ft | 505 kts | 166° |
| 2026-05-05 12:07 | 38.12026 | 25.97050 | 33584 ft | 508 kts | 165° |
| 2026-05-05 12:07 | 38.08633 | 25.98359 | 32912 ft | 510 kts | 164° |
| 2026-05-05 12:08 | 38.05244 | 25.99742 | 32259 ft | 512 kts | 163° |
| 2026-05-05 12:08 | 38.01868 | 26.01191 | 31632 ft | 514 kts | 162° |
| 2026-05-05 12:08 | 37.98485 | 26.02694 | 31008 ft | 515 kts | 162° |
| 2026-05-05 12:08 | 37.95106 | 26.04222 | 30406 ft | 517 kts | 162° |
| 2026-05-05 12:09 | 37.91720 | 26.05765 | 29744 ft | 517 kts | 162° |
| 2026-05-05 12:09 | 37.88340 | 26.07307 | 29047 ft | 514 kts | 162° |
| 2026-05-05 12:09 | 37.84986 | 26.08835 | 28370 ft | 510 kts | 162° |
| 2026-05-05 12:09 | 37.81657 | 26.10348 | 27702 ft | 506 kts | 162° |
| 2026-05-05 12:10 | 37.78361 | 26.11840 | 27058 ft | 501 kts | 162° |
| 2026-05-05 12:10 | 37.75091 | 26.13318 | 26422 ft | 497 kts | 162° |
| 2026-05-05 12:10 | 37.71850 | 26.14779 | 25798 ft | 493 kts | 162° |
| 2026-05-05 12:10 | 37.68664 | 26.16212 | 25195 ft | 488 kts | 162° |
| 2026-05-05 12:11 | 37.65487 | 26.17641 | 24604 ft | 483 kts | 163° |
| 2026-05-05 12:11 | 37.62331 | 26.19058 | 24019 ft | 478 kts | 163° |
| 2026-05-05 12:11 | 37.59212 | 26.20458 | 23411 ft | 474 kts | 163° |
| 2026-05-05 12:11 | 37.56124 | 26.21841 | 22727 ft | 468 kts | 163° |
| 2026-05-05 12:12 | 37.53066 | 26.23210 | 22062 ft | 463 kts | 163° |
| 2026-05-05 12:12 | 37.50042 | 26.24563 | 21418 ft | 458 kts | 162° |
| 2026-05-05 12:12 | 37.47050 | 26.25900 | 20783 ft | 454 kts | 162° |
| 2026-05-05 12:12 | 37.44089 | 26.27223 | 20163 ft | 450 kts | 162° |
| 2026-05-05 12:13 | 37.41155 | 26.28532 | 19558 ft | 445 kts | 162° |
| 2026-05-05 12:13 | 37.38244 | 26.29830 | 18964 ft | 441 kts | 162° |
| 2026-05-05 12:13 | 37.35393 | 26.31100 | 18386 ft | 438 kts | 162° |
| 2026-05-05 12:13 | 37.32526 | 26.32377 | 17720 ft | 434 kts | 161° |
| 2026-05-05 12:14 | 37.29689 | 26.33639 | 17052 ft | 430 kts | 161° |
| 2026-05-05 12:14 | 37.26887 | 26.34884 | 16427 ft | 426 kts | 161° |
| 2026-05-05 12:14 | 37.24094 | 26.36125 | 15797 ft | 422 kts | 161° |
| 2026-05-05 12:14 | 37.21334 | 26.37350 | 15184 ft | 418 kts | 161° |
| 2026-05-05 12:15 | 37.18598 | 26.38564 | 14579 ft | 414 kts | 160° |
| 2026-05-05 12:15 | 37.15889 | 26.39765 | 13993 ft | 411 kts | 160° |
| 2026-05-05 12:15 | 37.13203 | 26.40956 | 13351 ft | 407 kts | 160° |
| 2026-05-05 12:15 | 37.10553 | 26.42131 | 12687 ft | 403 kts | 160° |
| 2026-05-05 12:16 | 37.07919 | 26.43298 | 12045 ft | 399 kts | 160° |
| 2026-05-05 12:16 | 37.05327 | 26.44445 | 11478 ft | 394 kts | 160° |
| 2026-05-05 12:16 | 37.02799 | 26.45562 | 11144 ft | 374 kts | 160° |
| 2026-05-05 12:16 | 37.00434 | 26.46607 | 10852 ft | 354 kts | 159° |
| 2026-05-05 12:17 | 36.98161 | 26.47610 | 10596 ft | 336 kts | 159° |
| 2026-05-05 12:17 | 36.96002 | 26.48562 | 10330 ft | 320 kts | 159° |
| 2026-05-05 12:17 | 36.93953 | 26.49465 | 9939 ft | 312 kts | 159° |
| 2026-05-05 12:17 | 36.91902 | 26.50370 | 9493 ft | 309 kts | 159° |
| 2026-05-05 12:18 | 36.89902 | 26.51289 | 9046 ft | 308 kts | 153° |
| 2026-05-05 12:18 | 36.88254 | 26.52911 | 8551 ft | 300 kts | 121° |
| 2026-05-05 12:18 | 36.87338 | 26.55214 | 8097 ft | 293 kts | 106° |
| 2026-05-05 12:18 | 36.86644 | 26.57571 | 7698 ft | 291 kts | 105° |
| 2026-05-05 12:19 | 36.85932 | 26.59954 | 7295 ft | 291 kts | 105° |
| 2026-05-05 12:19 | 36.85199 | 26.62283 | 6906 ft | 289 kts | 106° |
| 2026-05-05 12:19 | 36.84491 | 26.64451 | 6534 ft | 289 kts | 106° |
| 2026-05-05 12:19 | 36.83717 | 26.66769 | 6112 ft | 288 kts | 107° |
| 2026-05-05 12:20 | 36.82893 | 26.69036 | 5691 ft | 291 kts | 117° |
| 2026-05-05 12:20 | 36.81568 | 26.70998 | 5310 ft | 293 kts | 126° |
| 2026-05-05 12:20 | 36.80219 | 26.72852 | 5091 ft | 290 kts | 128° |
| 2026-05-05 12:20 | 36.78837 | 26.74714 | 5065 ft | 291 kts | 128° |
| 2026-05-05 12:21 | 36.77469 | 26.76568 | 5059 ft | 292 kts | 128° |
| 2026-05-05 12:21 | 36.76092 | 26.78445 | 5060 ft | 292 kts | 127° |
| 2026-05-05 12:21 | 36.74729 | 26.80310 | 5008 ft | 291 kts | 127° |
| 2026-05-05 12:21 | 36.73386 | 26.82196 | 4982 ft | 289 kts | 122° |
| 2026-05-05 12:22 | 36.72269 | 26.84257 | 4681 ft | 283 kts | 116° |
| 2026-05-05 12:22 | 36.71292 | 26.86290 | 4474 ft | 267 kts | 114° |
| 2026-05-05 12:22 | 36.70385 | 26.88245 | 4280 ft | 252 kts | 114° |
| 2026-05-05 12:22 | 36.69551 | 26.90071 | 4207 ft | 236 kts | 113° |
| 2026-05-05 12:23 | 36.68763 | 26.91812 | 4032 ft | 225 kts | 112° |
| 2026-05-05 12:23 | 36.67997 | 26.93523 | 3999 ft | 225 kts | 113° |
| 2026-05-05 12:23 | 36.67239 | 26.95221 | 3997 ft | 227 kts | 113° |
| 2026-05-05 12:23 | 36.66469 | 26.96942 | 3995 ft | 227 kts | 113° |
| 2026-05-05 12:24 | 36.65708 | 26.98637 | 3997 ft | 226 kts | 113° |
| 2026-05-05 12:24 | 36.64951 | 27.00319 | 3994 ft | 213 kts | 113° |
| 2026-05-05 12:24 | 36.64235 | 27.01901 | 4000 ft | 205 kts | 112° |
| 2026-05-05 12:24 | 36.63551 | 27.03426 | 3995 ft | 203 kts | 112° |
| 2026-05-05 12:25 | 36.62857 | 27.04974 | 3998 ft | 204 kts | 112° |
| 2026-05-05 12:25 | 36.62168 | 27.06514 | 3995 ft | 204 kts | 113° |
| 2026-05-05 12:25 | 36.61479 | 27.08049 | 3993 ft | 204 kts | 113° |
| 2026-05-05 12:25 | 36.60783 | 27.09595 | 3993 ft | 204 kts | 113° |
| 2026-05-05 12:26 | 36.60185 | 27.11180 | 3905 ft | 199 kts | 96° |
| 2026-05-05 12:26 | 36.60380 | 27.12772 | 3507 ft | 180 kts | 47° |
| 2026-05-05 12:26 | 36.61359 | 27.13514 | 3428 ft | 163 kts | 11° |
| 2026-05-05 12:26 | 36.62435 | 27.13751 | 3179 ft | 152 kts | 4° |
| 2026-05-05 12:27 | 36.63482 | 27.13909 | 2739 ft | 154 kts | 2° |
| 2026-05-05 12:27 | 36.64534 | 27.14072 | 2516 ft | 152 kts | 2° |
| 2026-05-05 12:27 | 36.65590 | 27.14247 | 2495 ft | 153 kts | 2° |
| 2026-05-05 12:27 | 36.66601 | 27.14429 | 2486 ft | 143 kts | 3° |
| 2026-05-05 12:28 | 36.67603 | 27.14609 | 2512 ft | 148 kts | 3° |
| 2026-05-05 12:28 | 36.68629 | 27.14793 | 2529 ft | 148 kts | 4° |
| 2026-05-05 12:28 | 36.69646 | 27.14962 | 2551 ft | 147 kts | 3° |
| 2026-05-05 12:28 | 36.70641 | 27.15111 | 2569 ft | 137 kts | 2° |
| 2026-05-05 12:29 | 36.71529 | 27.15111 | 2478 ft | 123 kts | 345° |
| 2026-05-05 12:29 | 36.72302 | 27.14693 | 2284 ft | 121 kts | 327° |
| 2026-05-05 12:29 | 36.73013 | 27.14128 | 2095 ft | 121 kts | 326° |
| 2026-05-05 12:29 | 36.73732 | 27.13556 | 1975 ft | 123 kts | 327° |
| 2026-05-05 12:30 | 36.74383 | 27.13069 | 1856 ft | 124 kts | 328° |
| 2026-05-05 12:30 | 36.74811 | 27.12757 | 1698 ft | 123 kts | 328° |
| 2026-05-05 12:30 | 36.75540 | 27.12209 | 1366 ft | 122 kts | 327° |
| 2026-05-05 12:30 | 36.76250 | 27.11637 | 1061 ft | 121 kts | 327° |
| 2026-05-05 12:31 | 36.76965 | 27.11057 | 840 ft | 125 kts | 330° |
| 2026-05-05 12:31 | 36.77698 | 27.10473 | 691 ft | 131 kts | 332° |
| 2026-05-05 12:31 | 36.78470 | 27.09883 | 501 ft | 130 kts | 331° |
| 2026-05-05 12:31 | 36.79226 | 27.09299 | 435 ft | 117 kts | 329° |
| 2026-05-05 12:32 | 36.79734 | 27.08909 | 442 ft | 46 kts | 326° |
| 2026-05-05 12:32 | 36.79809 | 27.08849 | 442 ft | 4 kts | 328° |
| 2026-05-05 12:33 | 36.79849 | 27.08817 | 432 ft | 17 kts | 328° |
| 2026-05-05 12:33 | 36.79992 | 27.08706 | 430 ft | 30 kts | 328° |
| 2026-05-05 12:33 | 36.80172 | 27.08570 | 442 ft | 29 kts | 328° |
| 2026-05-05 12:33 | 36.80332 | 27.08480 | 435 ft | 19 kts | 31° |
| 2026-05-05 12:34 | 36.80340 | 27.08603 | 447 ft | 16 kts | 105° |
| 2026-05-05 12:34 | 36.80261 | 27.08735 | 448 ft | 21 kts | 146° |
| 2026-05-05 12:34 | 36.80142 | 27.08825 | 448 ft | 20 kts | 149° |
| 2026-05-05 12:34 | 36.80086 | 27.08886 | 448 ft | 8 kts | 95° |
| 2026-05-05 12:35 | 36.80107 | 27.08939 | 448 ft | 0 kts | 57° |
| 2026-05-05 12:35 | 36.64073 | 27.13998 | 2569 ft | 152 kts | 2° |
| 2026-05-05 12:35 | 36.65128 | 27.14169 | 2496 ft | 153 kts | 2° |
| 2026-05-05 12:35 | 36.70375 | 27.15074 | 2584 ft | 142 kts | 2° |
| 2026-05-05 12:36 | 36.71293 | 27.15152 | 2500 ft | 126 kts | 351° |
| 2026-05-05 12:36 | 36.72105 | 27.14838 | 2363 ft | 121 kts | 329° |
| 2026-05-05 12:36 | 36.72823 | 27.14283 | 2132 ft | 121 kts | 326° |